Time;durP1;ratioP1;P1;durP2;ratioP2;P2;SDS_P1;SDS_P2;PMS_P1;PMS_P2;Temp;Humidity;BMP_temperature;BMP_pressure;BME280_temperature;BME280_humidity;BME280_pressure;Samples;Min_cycle;Max_cycle;Signal;HPM_P1;HPM_P2
2023/07/28 00:02:10;;;;;;;6.38;4.93;;;17.30;99.90;;;17.48;100.00;99114.31;5028327;28;20030;-77
2023/07/28 00:04:37;;;;;;;7.18;5.40;;;17.30;99.90;;;17.55;100.00;99100.16;5016049;28;20046;-77
2023/07/28 00:07:03;;;;;;;8.43;5.30;;;17.30;99.90;;;17.54;100.00;99106.78;4998361;28;20037;-77
2023/07/28 00:09:29;;;;;;;7.35;4.93;;;17.30;99.90;;;17.64;100.00;99101.09;5016128;28;20045;-77
2023/07/28 00:11:59;;;;;;;8.35;5.25;;;17.30;99.90;;;17.65;100.00;99108.25;5015440;28;20033;-78
2023/07/28 00:14:26;;;;;;;5.47;4.80;;;17.30;99.90;;;17.59;100.00;99112.22;5019896;28;20065;-77
2023/07/28 00:16:54;;;;;;;5.63;4.97;;;17.30;99.90;;;17.66;100.00;99115.41;5015475;28;20073;-77
2023/07/28 00:19:21;;;;;;;6.45;4.45;;;17.30;99.90;;;17.68;100.00;99123.38;5015387;28;20556;-77
2023/07/28 00:21:48;;;;;;;5.77;4.33;;;17.30;99.90;;;17.67;100.00;99133.56;5020006;28;20038;-77
2023/07/28 00:24:14;;;;;;;4.82;4.10;;;17.30;99.90;;;17.72;100.00;99142.88;5014290;28;20026;-76
2023/07/28 00:26:40;;;;;;;5.07;4.05;;;17.40;99.90;;;17.69;100.00;99155.34;5021380;28;20060;-77
2023/07/28 00:29:06;;;;;;;5.55;4.28;;;17.40;99.90;;;17.81;100.00;99174.19;5021872;28;20485;-77
2023/07/28 00:31:32;;;;;;;5.97;4.28;;;17.40;99.90;;;18.15;100.00;99188.78;5031320;28;20034;-77
2023/07/28 00:33:58;;;;;;;4.95;4.18;;;17.40;99.90;;;18.31;100.00;99237.09;5015424;28;20064;-76
2023/07/28 00:36:24;;;;;;;6.45;4.20;;;17.40;99.90;;;18.27;100.00;99271.94;5005953;28;20034;-77
2023/07/28 00:38:52;;;;;;;5.70;4.07;;;17.50;99.90;;;18.32;100.00;99293.94;5030238;28;20060;-77
2023/07/28 00:41:18;;;;;;;7.32;4.30;;;17.50;99.90;;;18.47;100.00;99317.69;5015090;28;20045;-76
2023/07/28 00:43:43;;;;;;;7.55;4.28;;;17.50;99.90;;;17.73;100.00;99287.91;5030029;28;20091;-76
2023/07/28 00:46:10;;;;;;;8.93;4.25;;;17.50;99.90;;;18.26;100.00;99293.19;5020369;28;20040;-77
2023/07/28 00:48:37;;;;;;;5.07;4.30;;;17.50;99.90;;;18.46;100.00;99327.09;5015056;28;20060;-77
2023/07/28 00:51:03;;;;;;;5.07;4.03;;;17.50;99.90;;;18.50;100.00;99343.91;5017974;28;20440;-77
2023/07/28 00:53:30;;;;;;;6.57;4.03;;;17.60;99.90;;;18.44;100.00;99348.69;5023406;28;20037;-77
2023/07/28 00:55:56;;;;;;;7.35;4.13;;;17.60;99.90;;;18.43;100.00;99336.00;5043801;28;20040;-78
2023/07/28 00:58:22;;;;;;;4.60;4.10;;;17.60;99.90;;;18.42;100.00;99334.34;5022362;28;20052;-78
2023/07/28 01:00:48;;;;;;;5.15;4.30;;;17.60;99.90;;;17.79;100.00;99306.06;5025225;28;20076;-77
2023/07/28 01:03:18;;;;;;;8.10;4.10;;;17.50;99.90;;;18.18;100.00;99285.59;5022516;28;20448;-80
2023/07/28 01:05:58;;;;;;;5.47;4.05;;;17.50;99.90;;;18.22;100.00;99305.16;5023273;28;20030;-80
2023/07/28 01:08:46;;;;;;;5.20;4.07;;;17.50;99.90;;;18.04;100.00;99306.81;5028310;28;20037;-80
2023/07/28 01:11:12;;;;;;;5.60;4.20;;;17.50;99.90;;;18.05;100.00;99291.91;5023153;28;20474;-79
2023/07/28 01:13:38;;;;;;;4.80;3.85;;;17.40;99.90;;;18.08;100.00;99291.31;5023951;28;20072;-79
2023/07/28 01:16:03;;;;;;;4.63;4.00;;;17.40;99.90;;;18.14;100.00;99290.09;5023933;28;20079;-79
2023/07/28 01:18:29;;;;;;;5.75;4.05;;;17.40;99.90;;;18.17;100.00;99291.41;5026156;28;20139;-80
2023/07/28 01:21:00;;;;;;;10.70;3.80;;;17.40;99.90;;;18.15;100.00;99290.91;5025023;28;20100;-78
2023/07/28 01:23:50;;;;;;;5.55;3.70;;;17.40;99.90;;;18.18;100.00;99293.09;5029578;28;20044;-80
2023/07/28 01:26:25;;;;;;;5.63;3.83;;;17.40;99.90;;;18.11;100.00;99286.00;5024682;28;20038;-79
2023/07/28 01:28:53;;;;;;;5.43;3.70;;;17.40;99.90;;;18.16;100.00;99287.84;5025199;28;20037;-80
2023/07/28 01:31:19;;;;;;;;;;;17.40;99.90;;;18.15;100.00;99275.19;5025339;28;20505;-80
2023/07/28 01:33:45;;;;;;;5.35;3.50;;;17.40;99.90;;;18.15;100.00;99280.69;5022093;28;19964;-79
2023/07/28 01:36:11;;;;;;;6.10;3.65;;;17.40;99.90;;;18.21;100.00;99279.47;5023201;28;20034;-79
2023/07/28 01:38:36;;;;;;;5.07;3.20;;;17.40;99.90;;;18.05;100.00;99292.72;5022256;28;20025;-79
2023/07/28 01:41:02;;;;;;;5.05;3.15;;;17.40;99.90;;;18.18;100.00;99288.38;5021345;28;20034;-78
2023/07/28 01:43:28;;;;;;;4.80;3.17;;;17.30;99.90;;;18.22;100.00;99289.41;5024915;28;20037;-79
2023/07/28 01:45:54;;;;;;;5.85;2.90;;;17.30;99.90;;;18.16;100.00;99298.06;5028969;28;20036;-79
2023/07/28 01:48:19;;;;;;;3.63;2.70;;;17.30;99.90;;;18.13;100.00;99285.69;5013828;28;20678;-78
2023/07/28 01:50:45;;;;;;;5.07;2.78;;;17.30;99.90;;;18.14;100.00;99284.56;5013885;28;20034;-78
2023/07/28 01:53:11;;;;;;;4.13;2.65;;;17.40;99.90;;;18.18;100.00;99296.66;5012475;28;20033;-78
2023/07/28 01:55:37;;;;;;;4.15;2.50;;;17.40;99.90;;;18.07;100.00;99293.22;5013911;28;20029;-79
2023/07/28 01:58:03;;;;;;;3.83;2.50;;;17.40;99.90;;;18.18;100.00;99287.56;5012552;28;20039;-80
2023/07/28 02:00:29;;;;;;;3.30;2.28;;;17.40;99.90;;;18.12;100.00;99300.63;5012334;28;20038;-79
2023/07/28 02:02:57;;;;;;;3.80;2.15;;;17.40;99.90;;;18.21;100.00;99301.56;5012325;28;20026;-79
2023/07/28 02:05:23;;;;;;;;;;;17.40;99.90;;;18.29;100.00;99316.63;5014513;28;20042;-79
2023/07/28 02:07:49;;;;;;;3.00;2.25;;;17.40;99.90;;;18.28;100.00;99314.16;5029106;28;20489;-79
2023/07/28 02:10:15;;;;;;;3.50;2.50;;;17.40;99.90;;;18.16;100.00;99317.38;5013119;28;20497;-79
2023/07/28 02:12:41;;;;;;;4.47;2.72;;;17.40;99.90;;;18.22;100.00;99325.28;5025362;28;20033;-80
2023/07/28 02:15:07;;;;;;;3.92;2.22;;;17.40;99.90;;;18.24;100.00;99313.97;5013913;28;20053;-80
2023/07/28 02:17:33;;;;;;;3.30;2.33;;;17.40;99.90;;;18.18;100.00;99323.44;5013707;28;20386;-79
2023/07/28 02:19:59;;;;;;;3.92;2.67;;;17.40;99.90;;;18.15;100.00;99332.28;5025853;28;20036;-78
2023/07/28 02:22:24;;;;;;;5.53;2.63;;;17.50;99.90;;;18.23;100.00;99326.13;5014237;28;20508;-78
2023/07/28 02:24:50;;;;;;;4.03;2.70;;;17.40;99.90;;;18.18;100.00;99324.25;5013515;28;20065;-79
2023/07/28 02:27:16;;;;;;;3.53;2.75;;;17.50;99.90;;;18.21;100.00;99323.66;5013130;28;20826;-79
2023/07/28 02:29:42;;;;;;;6.18;2.80;;;17.50;99.90;;;18.11;100.00;99319.09;5013576;28;20053;-79
2023/07/28 02:32:09;;;;;;;5.38;2.95;;;17.50;99.90;;;17.67;100.00;99293.50;5011830;28;20022;-79
2023/07/28 02:34:34;;;;;;;5.82;2.90;;;17.50;99.90;;;17.71;100.00;99276.38;5026074;28;20410;-78
2023/07/28 02:37:00;;;;;;;5.25;2.97;;;17.50;99.90;;;17.74;100.00;99270.25;5013305;28;20037;-79
2023/07/28 02:39:26;;;;;;;4.65;2.55;;;17.50;99.90;;;17.76;100.00;99274.38;5012111;28;20167;-78
2023/07/28 02:41:52;;;;;;;5.05;2.63;;;17.50;99.90;;;17.67;100.00;99270.66;5012779;28;20121;-80
2023/07/28 02:44:17;;;;;;;5.05;2.63;;;17.60;99.90;;;17.81;100.00;99270.72;5018022;28;20045;-78
2023/07/28 02:46:43;;;;;;;4.82;2.50;;;17.50;99.90;;;17.85;100.00;99282.78;5012384;28;20045;-79
2023/07/28 02:49:09;;;;;;;3.58;2.60;;;17.60;99.90;;;17.83;100.00;99296.88;5013124;28;20363;-80
2023/07/28 02:51:35;;;;;;;4.53;2.38;;;17.60;99.90;;;17.82;100.00;99294.41;5011505;28;20041;-78
2023/07/28 02:54:01;;;;;;;3.55;2.30;;;17.60;99.90;;;18.04;100.00;99293.03;5011832;28;20045;-78
2023/07/28 02:56:26;;;;;;;2.67;2.10;;;17.60;99.90;;;17.87;100.00;99302.63;5013081;28;20030;-79
2023/07/28 02:58:52;;;;;;;5.30;2.45;;;17.60;99.90;;;17.77;100.00;99306.34;5022244;28;20123;-80
2023/07/28 03:01:18;;;;;;;4.40;2.15;;;17.60;99.90;;;17.86;100.00;99306.50;5012629;28;20545;-78
2023/07/28 03:03:47;;;;;;;3.55;2.40;;;17.60;99.90;;;17.91;100.00;99317.44;5028194;28;20129;-79
2023/07/28 03:06:16;;;;;;;6.28;2.40;;;17.60;99.90;;;17.86;100.00;99320.28;5012694;28;20483;-79
2023/07/28 03:08:41;;;;;;;4.03;2.33;;;17.60;99.90;;;17.92;100.00;99312.75;5012609;28;20497;-79
2023/07/28 03:11:32;;;;;;;4.63;2.30;;;17.60;99.90;;;17.86;100.00;99312.00;5001611;28;20030;-79
2023/07/28 03:13:57;;;;;;;4.72;2.33;;;17.60;99.90;;;17.95;100.00;99325.97;5024495;28;20056;-78
2023/07/28 03:16:23;;;;;;;4.15;2.50;;;17.60;99.90;;;17.90;100.00;99324.09;5011631;28;20034;-78
2023/07/28 03:18:49;;;;;;;5.65;2.50;;;17.60;99.90;;;17.89;100.00;99325.19;5027716;28;20049;-79
2023/07/28 03:21:15;;;;;;;4.40;2.50;;;17.60;99.90;;;17.85;100.00;99318.66;5028062;28;20037;-79
2023/07/28 03:23:41;;;;;;;4.18;2.63;;;17.60;99.90;;;17.91;100.00;99324.91;5027573;28;20044;-78
2023/07/28 03:26:07;;;;;;;3.85;2.53;;;17.60;99.90;;;17.94;100.00;99324.31;5010981;28;20504;-79
2023/07/28 03:28:33;;;;;;;3.60;2.75;;;17.60;99.90;;;17.90;100.00;99324.09;4997384;28;20037;-79
2023/07/28 03:30:59;;;;;;;5.38;2.70;;;17.60;99.90;;;17.94;100.00;99324.31;5009153;28;20037;-78
2023/07/28 03:33:25;;;;;;;3.70;2.90;;;17.60;99.90;;;17.90;100.00;99326.00;5012432;28;20048;-77
2023/07/28 03:35:51;;;;;;;3.95;3.20;;;17.60;99.90;;;17.95;100.00;99331.47;5012283;28;20514;-79
2023/07/28 03:38:19;;;;;;;4.25;2.90;;;17.60;99.90;;;17.88;100.00;99340.13;5018477;28;20034;-79
2023/07/28 03:40:45;;;;;;;3.85;2.67;;;17.70;99.90;;;17.82;100.00;99333.84;5026980;28;20100;-79
2023/07/28 03:43:10;;;;;;;3.75;2.65;;;17.70;99.90;;;17.91;100.00;99331.25;5012335;28;20030;-80
2023/07/28 03:45:36;;;;;;;3.90;2.83;;;17.70;99.90;;;17.95;100.00;99346.06;5012628;28;20115;-79
2023/07/28 03:48:02;;;;;;;3.50;2.80;;;17.60;99.90;;;17.86;100.00;99334.09;5014696;28;20127;-78
2023/07/28 03:50:28;;;;;;;3.47;2.78;;;17.60;99.90;;;17.89;100.00;99339.00;5012481;28;20038;-79
2023/07/28 03:52:54;;;;;;;5.97;2.78;;;17.70;99.90;;;17.92;100.00;99341.16;5010317;28;20045;-79
2023/07/28 03:55:19;;;;;;;4.97;2.28;;;17.60;99.90;;;17.87;100.00;99346.75;5010979;28;20038;-79
2023/07/28 03:57:45;;;;;;;5.43;2.60;;;17.60;99.90;;;17.90;100.00;99348.91;5014669;28;20385;-79
2023/07/28 04:00:13;;;;;;;4.38;2.40;;;17.60;99.90;;;17.93;100.00;99342.78;5024855;28;20044;-79
2023/07/28 04:02:39;;;;;;;3.10;2.13;;;17.70;99.90;;;17.97;100.00;99356.81;5021752;28;20061;-79
2023/07/28 04:05:05;;;;;;;4.68;2.17;;;17.70;99.90;;;17.98;100.00;99356.50;5034637;28;20041;-78
2023/07/28 04:07:31;;;;;;;3.58;2.22;;;17.70;99.90;;;17.93;100.00;99355.78;5031566;28;20026;-79
2023/07/28 04:09:57;;;;;;;2.45;2.03;;;17.70;99.90;;;17.85;100.00;99349.00;5042677;28;20040;-78
2023/07/28 04:12:22;;;;;;;4.45;2.20;;;17.70;99.90;;;17.93;100.00;99359.34;5036216;28;20124;-79
2023/07/28 04:14:48;;;;;;;2.90;1.83;;;17.70;99.90;;;17.96;100.00;99358.75;5032527;28;20054;-79
2023/07/28 04:17:14;;;;;;;2.25;1.80;;;17.70;99.90;;;17.95;100.00;99359.88;5032626;28;20058;-79
2023/07/28 04:19:39;;;;;;;3.00;1.85;;;17.60;99.90;;;17.95;100.00;99356.31;5023416;28;20104;-79
2023/07/28 04:22:06;;;;;;;4.60;2.15;;;17.70;99.90;;;17.95;100.00;99359.88;5018559;28;20034;-79
2023/07/28 04:24:34;;;;;;;4.07;2.05;;;17.70;99.90;;;17.89;100.00;99365.75;5019775;28;20130;-78
2023/07/28 04:27:00;;;;;;;3.65;1.88;;;17.70;99.90;;;17.96;100.00;99368.97;5021946;28;20033;-79
2023/07/28 04:29:26;;;;;;;2.90;2.00;;;17.70;99.90;;;18.00;100.00;99364.50;5029682;28;20072;-79
2023/07/28 04:31:53;;;;;;;2.70;1.80;;;17.70;99.90;;;18.08;100.00;99374.91;5016603;28;20115;-79
2023/07/28 04:34:27;;;;;;;2.45;1.58;;;17.80;99.90;;;18.11;100.00;99379.00;5020981;28;20123;-78
2023/07/28 04:37:09;;;;;;;2.28;1.60;;;17.80;99.90;;;18.07;100.00;99370.50;5031550;28;20028;-78
2023/07/28 04:39:55;;;;;;;2.83;1.50;;;17.80;99.90;;;18.11;100.00;99377.06;5016045;28;20049;-79
2023/07/28 04:42:20;;;;;;;1.60;1.20;;;17.80;99.90;;;18.14;100.00;99383.94;5015411;28;20034;-78
2023/07/28 04:44:47;;;;;;;3.33;1.40;;;17.80;99.90;;;18.20;100.00;99388.25;5031259;28;20034;-78
2023/07/28 04:47:14;;;;;;;3.30;1.40;;;17.90;99.90;;;18.23;100.00;99393.16;5025148;28;20122;-78
2023/07/28 04:49:41;;;;;;;2.45;1.30;;;17.90;99.90;;;18.31;100.00;99390.88;5027078;28;20503;-78
2023/07/28 04:52:08;;;;;;;2.30;1.50;;;18.00;99.90;;;18.26;100.00;99409.13;5028494;28;20034;-78
2023/07/28 04:54:39;;;;;;;2.38;1.60;;;18.00;99.90;;;18.39;100.00;99417.78;5032889;28;20053;-77
2023/07/28 04:57:06;;;;;;;2.70;1.55;;;18.00;99.90;;;18.30;100.00;99425.91;5032544;28;20052;-78
2023/07/28 04:59:35;;;;;;;3.58;1.30;;;18.00;99.90;;;18.40;100.00;99430.47;5034703;28;20068;-76
2023/07/28 05:02:01;;;;;;;3.38;1.50;;;18.10;99.90;;;18.30;100.00;99436.13;5036882;28;20037;-79
2023/07/28 05:04:27;;;;;;;3.63;1.88;;;18.00;99.90;;;18.37;100.00;99433.84;5015130;28;20382;-76
2023/07/28 05:06:53;;;;;;;2.83;1.35;;;18.00;99.90;;;18.36;100.00;99430.25;5031421;28;20129;-76
2023/07/28 05:09:19;;;;;;;2.83;1.40;;;18.10;99.90;;;18.43;100.00;99440.06;5026874;28;20040;-76
2023/07/28 05:11:44;;;;;;;1.80;1.30;;;18.10;99.90;;;18.43;100.00;99440.06;5028523;28;20409;-76
2023/07/28 05:14:11;;;;;;;2.03;1.30;;;18.10;99.90;;;18.44;100.00;99444.50;5022863;28;20467;-77
2023/07/28 05:16:37;;;;;;;2.00;1.35;;;18.10;99.90;;;18.39;100.00;99446.19;5008269;28;20040;-76
2023/07/28 05:19:09;;;;;;;1.98;1.30;;;18.10;99.90;;;18.41;100.00;99451.44;5018080;28;20050;-77
2023/07/28 05:22:10;;;;;;;3.40;1.20;;;18.20;99.90;;;18.43;100.00;99459.41;5021625;28;20148;-76
2023/07/28 05:24:45;;;;;;;2.75;1.48;;;18.20;99.90;;;18.54;100.00;99460.91;5003523;28;20025;-77
2023/07/28 05:27:12;;;;;;;1.95;1.50;;;18.20;99.90;;;18.43;100.00;99468.53;5043245;28;20038;-76
2023/07/28 05:29:43;;;;;;;2.90;1.60;;;18.20;99.90;;;18.49;100.00;99478.38;5016727;28;20033;-77
2023/07/28 05:32:09;;;;;;;2.97;1.40;;;18.20;99.90;;;18.45;100.00;99474.56;5028457;28;20033;-80
2023/07/28 05:34:43;;;;;;;1.80;1.50;;;18.20;99.90;;;18.45;100.00;99482.84;5033709;28;20140;-77
2023/07/28 05:37:10;;;;;;;2.15;1.55;;;18.30;99.90;;;18.54;100.00;99481.06;5023737;28;20096;-80
2023/07/28 05:39:36;;;;;;;2.42;1.80;;;18.30;99.90;;;18.46;100.00;99484.50;5024888;28;20049;-78
2023/07/28 05:42:03;;;;;;;4.07;1.90;;;18.20;99.90;;;18.31;100.00;99481.97;5019212;28;20112;-80
2023/07/28 05:44:30;;;;;;;3.45;1.73;;;18.30;99.90;;;18.36;100.00;99481.88;5024039;28;20084;-76
2023/07/28 05:46:55;;;;;;;4.20;1.88;;;18.20;99.90;;;18.36;100.00;99479.94;5014587;28;20042;-80
2023/07/28 05:49:21;;;;;;;3.60;2.13;;;18.20;99.90;;;18.32;100.00;99478.88;5030820;28;20052;-76
2023/07/28 05:51:47;;;;;;;3.75;1.70;;;18.30;99.90;;;18.53;100.00;99486.88;5029640;28;20382;-75
2023/07/28 05:54:14;;;;;;;3.23;2.13;;;18.40;99.90;;;18.48;100.00;99476.72;5026744;28;20117;-77
2023/07/28 05:56:41;;;;;;;4.25;2.15;;;18.40;99.90;;;18.53;100.00;99489.66;5014408;28;20482;-78
2023/07/28 05:59:07;;;;;;;4.20;2.30;;;18.40;99.90;;;18.52;100.00;99501.81;5015809;28;20033;-77
2023/07/28 06:01:34;;;;;;;6.07;2.20;;;18.40;99.90;;;18.54;100.00;99496.81;5015778;28;20041;-78
2023/07/28 06:04:18;;;;;;;4.30;2.50;;;18.40;99.90;;;18.41;100.00;99501.13;5022876;28;20143;-77
2023/07/28 06:06:48;;;;;;;3.90;2.20;;;18.40;99.90;;;18.56;100.00;99500.09;5040204;28;20026;-77
2023/07/28 06:09:15;;;;;;;4.05;2.47;;;18.50;99.90;;;18.66;100.00;99504.66;5026004;28;20033;-77
2023/07/28 06:11:42;;;;;;;3.20;2.38;;;18.60;99.90;;;18.80;100.00;99516.56;5009918;28;20033;-77
2023/07/28 06:14:08;;;;;;;3.75;2.47;;;18.60;99.90;;;18.96;100.00;99524.63;5012758;28;20037;-77
2023/07/28 06:16:36;;;;;;;4.50;2.65;;;18.80;99.90;;;19.13;100.00;99545.44;5014018;28;20092;-76
2023/07/28 06:19:01;;;;;;;3.60;2.15;;;18.90;99.90;;;19.20;100.00;99546.66;5018862;28;20061;-77
2023/07/28 06:21:27;;;;;;;3.08;2.17;;;19.00;99.90;;;19.19;100.00;99556.06;5009704;28;20038;-77
2023/07/28 06:23:53;;;;;;;4.22;2.17;;;19.10;99.90;;;19.52;100.00;99566.31;5023256;28;20033;-77
2023/07/28 06:26:20;;;;;;;4.40;2.33;;;;;;;19.79;100.00;99584.94;5002395;28;20031;-76
2023/07/28 06:28:47;;;;;;;2.83;2.28;;;;;;;19.61;100.00;99583.03;5012888;28;20064;-77
2023/07/28 06:31:13;;;;;;;4.45;2.60;;;19.40;99.90;;;19.40;100.00;99570.41;5014646;28;20030;-76
2023/07/28 06:33:39;;;;;;;3.50;2.40;;;19.50;99.90;;;19.50;100.00;99574.09;5027977;28;20063;-76
2023/07/28 06:36:05;;;;;;;2.90;2.17;;;19.50;99.90;;;19.68;100.00;99564.94;5028126;28;20073;-76
2023/07/28 06:38:31;;;;;;;2.60;2.10;;;19.60;99.90;;;19.62;100.00;99566.13;5013962;28;20120;-78
2023/07/28 06:40:57;;;;;;;4.75;2.70;;;19.50;99.90;;;19.48;100.00;99581.88;5012515;28;20062;-78
2023/07/28 06:43:23;;;;;;;4.45;2.40;;;19.40;99.90;;;19.36;100.00;99574.06;5029474;28;20045;-78
2023/07/28 06:45:53;;;;;;;3.65;2.60;;;19.30;99.90;;;19.38;100.00;99580.94;5019532;28;20022;-78
2023/07/28 06:48:19;;;;;;;3.35;2.42;;;19.20;99.90;;;19.07;100.00;99581.41;5025461;28;20117;-78
2023/07/28 06:50:45;;;;;;;3.28;2.53;;;19.10;99.90;;;19.21;100.00;99572.38;5014213;28;20116;-78
2023/07/28 06:53:11;;;;;;;4.03;2.88;;;19.10;99.90;;;19.23;100.00;99578.41;5013890;28;20628;-78
2023/07/28 06:55:39;;;;;;;4.28;2.53;;;19.10;99.90;;;19.25;100.00;99588.06;5018601;28;20088;-83
2023/07/28 06:58:06;;;;;;;4.85;2.88;;;19.10;99.90;;;19.37;100.00;99584.84;5014187;28;20491;-80
2023/07/28 07:00:33;;;;;;;3.78;2.67;;;19.20;99.90;;;19.36;100.00;99587.88;5023346;28;20485;-84
2023/07/28 07:02:59;;;;;;;4.53;2.50;;;19.20;99.90;;;19.53;100.00;99582.63;5014097;28;21369;-81
2023/07/28 07:05:25;;;;;;;3.90;2.67;;;19.40;99.90;;;19.58;100.00;99601.06;5027425;28;20041;-79
2023/07/28 07:07:52;;;;;;;3.50;2.53;;;19.50;99.90;;;19.83;100.00;99615.56;5014280;28;20037;-81
2023/07/28 07:10:18;;;;;;;4.57;2.57;;;19.60;99.90;;;19.84;100.00;99626.34;5014920;28;20042;-81
2023/07/28 07:12:44;;;;;;;4.22;2.30;;;19.70;99.90;;;19.68;100.00;99631.34;5015524;28;20445;-79
2023/07/28 07:15:11;;;;;;;3.70;2.40;;;19.60;99.90;;;19.75;100.00;99632.88;5018147;28;20033;-79
2023/07/28 07:17:37;;;;;;;4.53;2.30;;;19.60;99.90;;;19.78;100.00;99626.72;5028519;28;20054;-77
2023/07/28 07:20:04;;;;;;;3.10;2.20;;;19.60;99.90;;;19.97;100.00;99641.38;5013831;28;20053;-79
2023/07/28 07:22:29;;;;;;;4.05;2.30;;;19.70;99.90;;;19.92;100.00;99644.25;5013744;28;20121;-79
2023/07/28 07:24:56;;;;;;;3.67;2.30;;;19.80;99.90;;;19.98;100.00;99637.47;5017971;28;20084;-79
2023/07/28 07:27:24;;;;;;;4.65;2.60;;;;;;;20.11;100.00;99640.56;5014656;28;20042;-83
2023/07/28 07:29:51;;;;;;;3.13;2.50;;;;;;;20.18;100.00;99645.69;5013762;28;20033;-78
2023/07/28 07:32:17;;;;;;;3.15;2.40;;;;;;;20.32;100.00;99656.78;5014115;28;20103;-78
2023/07/28 07:34:44;;;;;;;3.20;2.08;;;;;;;20.44;100.00;99673.72;5015687;28;20047;-82
2023/07/28 07:37:10;;;;;;;4.72;2.38;;;19.80;99.90;;;20.09;100.00;99665.78;5018736;28;20034;-79
2023/07/28 07:39:36;;;;;;;3.10;2.30;;;;;;;20.49;100.00;99670.03;5013789;28;20624;-81
2023/07/28 07:42:02;;;;;;;3.13;2.30;;;20.20;99.90;;;20.69;100.00;99666.03;5013706;28;20033;-84
2023/07/28 07:44:28;;;;;;;2.72;2.15;;;;;;;20.93;100.00;99687.16;5014291;28;20096;-81
2023/07/28 07:46:56;;;;;;;3.35;2.30;;;;;;;21.06;100.00;99691.88;5013461;28;20045;-82
2023/07/28 07:49:23;;;;;;;3.28;2.17;;;;;;;21.02;100.00;99696.41;5012628;28;20409;-77
2023/07/28 07:51:49;;;;;;;4.55;2.30;;;;;;;21.48;100.00;99710.34;5013534;28;20048;-80
2023/07/28 07:54:18;;;;;;;4.47;2.65;;;;;;;21.37;100.00;99721.69;5020693;28;20144;-80
2023/07/28 07:56:46;;;;;;;3.72;2.72;;;;;;;21.26;100.00;99723.88;5011878;28;20289;-79
2023/07/28 07:59:12;;;;;;;4.38;2.80;;;;;;;21.65;100.00;99724.41;5012964;28;20041;-80
2023/07/28 08:01:38;;;;;;;3.50;2.70;;;;;;;22.05;100.00;99736.81;5027934;28;20112;-79
2023/07/28 08:04:05;;;;;;;4.22;2.50;;;;;;;22.33;100.00;99742.19;5025394;28;20038;-84
2023/07/28 08:06:31;;;;;;;3.55;2.92;;;;;;;21.93;100.00;99745.69;5021799;28;20084;-80
2023/07/28 08:08:59;;;;;;;3.80;2.70;;;;;;;21.46;100.00;99743.13;5024954;28;20046;-81
2023/07/28 08:11:25;;;;;;;4.07;2.50;;;;;;;21.10;100.00;99739.22;5016946;28;20406;-81
2023/07/28 08:13:51;;;;;;;4.63;3.30;;;20.50;99.90;;;21.21;100.00;99737.03;5021357;28;20029;-79
2023/07/28 08:16:16;;;;;;;3.67;2.70;;;21.20;99.90;;;21.31;100.00;99745.13;5018759;28;20401;-79
2023/07/28 08:18:42;;;;;;;4.20;2.97;;;21.20;99.90;;;21.04;100.00;99746.81;5017031;28;20046;-79
2023/07/28 08:21:08;;;;;;;4.35;2.83;;;21.20;99.90;;;21.36;100.00;99749.75;5017098;28;20044;-85
2023/07/28 08:23:34;;;;;;;3.67;2.72;;;21.20;99.90;;;21.47;100.00;99753.09;5014128;28;20038;-80
2023/07/28 08:25:59;;;;;;;4.13;3.10;;;21.30;99.90;;;21.18;100.00;99754.28;5017361;28;20055;-79
2023/07/28 08:28:25;;;;;;;3.95;2.70;;;21.20;99.90;;;21.09;100.00;99751.44;5016683;28;20044;-79
2023/07/28 08:30:57;;;;;;;4.38;2.80;;;21.10;99.90;;;21.28;100.00;99759.63;5017355;28;20033;-78
2023/07/28 08:33:24;;;;;;;3.72;2.50;;;21.20;99.90;;;21.40;100.00;99767.41;5016684;28;20057;-80
2023/07/28 08:35:51;;;;;;;3.80;2.53;;;;;;;21.61;100.00;99762.22;5017873;28;20060;-81
2023/07/28 08:38:17;;;;;;;3.65;2.45;;;;;;;21.88;100.00;99771.63;5017679;28;20038;-81
2023/07/28 08:40:46;;;;;;;4.32;2.10;;;;;;;22.03;100.00;99775.16;5017757;28;20038;-80
2023/07/28 08:43:12;;;;;;;3.10;2.30;;;;;;;21.77;100.00;99778.56;5022306;28;20105;-78
2023/07/28 08:45:40;;;;;;;3.33;2.00;;;;;;;21.96;100.00;99779.19;5017733;28;20100;-79
2023/07/28 08:48:06;;;;;;;3.88;2.20;;;;;;;22.03;100.00;99786.28;5017185;28;20053;-80
2023/07/28 08:50:33;;;;;;;3.33;2.00;;;;;;;22.37;100.00;99785.66;5017885;28;20041;-79
2023/07/28 08:52:59;;;;;;;2.63;2.10;;;;;;;22.71;100.00;99786.22;5017169;28;20049;-79
2023/07/28 08:55:26;;;;;;;3.60;2.00;;;;;;;22.60;100.00;99794.00;5033777;28;20034;-83
2023/07/28 08:57:52;;;;;;;4.28;1.88;;;;;;;22.98;100.00;99795.47;5026792;28;20072;-82
2023/07/28 09:00:18;;;;;;;3.22;2.22;;;;;;;23.22;100.00;99791.47;5020160;28;20037;-83
2023/07/28 09:02:48;;;;;;;3.35;2.10;;;;;;;22.93;100.00;99793.66;5027868;28;20098;-82
2023/07/28 09:05:23;;;;;;;3.75;1.92;;;;;;;22.42;100.00;99788.34;5042409;28;20056;-80
2023/07/28 09:07:52;;;;;;;2.70;1.80;;;;;;;22.36;100.00;99791.56;5050867;28;20102;-82
2023/07/28 09:10:19;;;;;;;2.00;1.50;;;;;;;22.84;100.00;99804.75;5029051;28;20037;-81
2023/07/28 09:12:50;;;;;;;3.75;1.60;;;;;;;22.95;100.00;99807.25;5042383;28;20117;-80
2023/07/28 09:15:17;;;;;;;2.08;1.50;;;;;;;23.48;100.00;99799.09;5038579;28;20045;-80
2023/07/28 09:17:47;;;;;;;2.47;1.50;;;;;;;23.61;100.00;99812.06;5051881;28;20051;-80
2023/07/28 09:20:14;;;;;;;3.35;1.58;;;;;;;23.95;100.00;99812.38;5032427;28;20132;-78
2023/07/28 09:22:41;;;;;;;2.70;1.50;;;;;;;24.12;100.00;99817.16;5035953;28;20044;-79
2023/07/28 09:25:15;;;;;;;3.60;1.67;;;;;;;24.28;100.00;99812.72;5026909;28;20037;-78
2023/07/28 09:27:51;;;;;;;2.83;1.60;;;;;;;24.24;100.00;99816.47;5026908;28;20033;-81
2023/07/28 09:30:18;;;;;;;3.28;1.50;;;;;;;24.11;100.00;99816.34;5016461;28;20145;-80
2023/07/28 09:32:48;;;;;;;4.50;1.65;;;;;;;23.85;100.00;99814.34;5017421;28;20034;-78
2023/07/28 09:35:15;;;;;;;1.77;1.60;;;;;;;24.09;100.00;99817.81;5016591;28;20511;-78
2023/07/28 09:37:44;;;;;;;4.47;1.43;;;;;;;23.99;100.00;99816.13;5020844;28;20030;-80
2023/07/28 09:40:13;;;;;;;3.00;1.52;;;;;;;23.68;100.00;99817.13;5028951;28;20041;-79
2023/07/28 09:42:44;;;;;;;4.25;1.70;;;;;;;23.33;100.00;99819.84;5019625;28;20033;-79
2023/07/28 09:45:11;;;;;;;3.45;1.60;;;;;;;23.66;100.00;99808.28;5023949;28;20131;-78
2023/07/28 09:47:38;;;;;;;2.92;1.80;;;;;;;24.11;100.00;99819.13;5018593;28;20496;-79
2023/07/28 09:50:06;;;;;;;3.28;1.50;;;;;;;24.19;100.00;99820.28;5020577;28;20049;-78
2023/07/28 09:52:40;;;;;;;3.28;1.70;;;;;;;24.89;100.00;99813.75;5012566;28;20490;-79
2023/07/28 09:55:10;;;;;;;2.15;1.70;;;;;;;24.63;100.00;99819.34;5015327;28;20485;-78
2023/07/28 09:57:45;;;;;;;2.75;1.42;;;;;;;25.01;100.00;99820.56;5024224;28;20041;-80
2023/07/28 10:00:15;;;;;;;3.50;1.83;;;;;;;25.28;100.00;99822.91;5023527;28;20049;-79
2023/07/28 10:02:44;;;;;;;2.45;1.70;;;;;;;25.30;100.00;99822.56;5022460;28;20037;-79
2023/07/28 10:05:10;;;;;;;2.47;1.45;;;;;;;25.24;100.00;99829.50;5018257;28;20041;-77
2023/07/28 10:07:38;;;;;;;3.22;1.60;;;;;;;25.30;100.00;99811.41;5020253;28;20552;-78
2023/07/28 10:10:10;;;;;;;3.10;1.70;;;;;;;23.56;100.00;99826.09;5022994;28;20037;-79
2023/07/28 10:12:50;;;;;;;3.33;1.80;;;;;;;24.66;100.00;99816.72;5015079;28;20125;-78
2023/07/28 10:15:19;;;;;;;2.55;1.75;;;;;;;25.22;100.00;99831.81;5013778;28;20145;-80
2023/07/28 10:17:52;;;;;;;3.13;1.50;;;;;;;24.77;100.00;99824.75;5020406;28;20053;-80
2023/07/28 10:20:42;;;;;;;2.03;1.40;;;;;;;25.27;100.00;99834.41;5026258;28;20073;-79
2023/07/28 10:23:16;;;;;;;2.60;1.50;;;;;;;25.62;100.00;99837.00;5016198;28;20036;-81
2023/07/28 10:25:44;;;;;;;3.35;1.50;;;;;;;26.14;100.00;99830.22;5032518;28;20505;-80
2023/07/28 10:28:31;;;;;;;1.85;1.30;;;;;;;26.36;100.00;99822.63;5027482;28;20045;-81
2023/07/28 10:30:58;;;;;;;1.70;1.40;;;;;;;25.94;100.00;99834.63;5015242;28;20049;-79
2023/07/28 10:33:33;;;;;;;;;;;;;;;25.94;100.00;99833.84;5011774;28;20385;-80